createdAt,value
2022-12-28T00:01:10.259Z,101964.72
2022-12-28T00:04:14.959Z,101967.38
2022-12-28T00:07:18.156Z,101957.69
2022-12-28T00:11:08.720Z,101963.91
2022-12-28T00:13:44.378Z,101970.09
2022-12-28T00:16:48.702Z,101963.91
2022-12-28T00:19:51.690Z,101959.50
2022-12-28T00:22:54.574Z,101963.91
2022-12-28T00:25:57.509Z,101962.16
2022-12-28T00:29:04.737Z,101955.03
2022-12-28T00:32:09.887Z,101955.03
2022-12-28T00:35:12.767Z,101955.03
2022-12-28T00:38:15.584Z,101947.94
2022-12-28T00:41:18.735Z,101948.88
2022-12-28T00:44:21.570Z,101946.22
2022-12-28T00:47:26.477Z,101935.59
2022-12-28T00:50:29.295Z,101932.94
2022-12-28T00:53:32.118Z,101920.53
2022-12-28T00:56:35.656Z,101911.69
2022-12-28T00:59:38.561Z,101914.34
2022-12-28T01:02:42.796Z,101907.25
2022-12-28T01:05:45.643Z,101915.22
2022-12-28T01:08:48.493Z,101943.56
2022-12-28T01:11:51.365Z,101947.06
2022-12-28T01:14:54.278Z,101921.38
2022-12-28T01:17:58.514Z,101918.72
2022-12-28T01:21:09.965Z,101906.34
2022-12-28T01:24:12.795Z,101894.81
2022-12-28T01:27:15.801Z,101883.34
2022-12-28T01:30:18.847Z,101897.50
2022-12-28T01:33:23.100Z,101897.50
2022-12-28T01:36:28.238Z,101888.66
2022-12-28T01:39:31.231Z,101885.09
2022-12-28T01:42:34.155Z,101889.50
2022-12-28T01:45:37.138Z,101878.84
2022-12-28T01:48:47.124Z,101875.31
2022-12-28T01:51:57.319Z,101863.78
2022-12-28T01:55:06.065Z,101861.13
2022-12-28T01:58:12.965Z,101857.59
2022-12-28T02:01:17.512Z,101854.03
2022-12-28T02:04:22.011Z,101853.16
2022-12-28T02:07:35.078Z,101848.75
2022-12-28T02:10:44.113Z,101836.34
2022-12-28T02:13:50.238Z,101836.34
2022-12-28T02:16:55.486Z,101826.59
2022-12-28T02:19:59.752Z,101819.50
2022-12-28T02:23:24.276Z,101806.22
2022-12-28T02:26:44.409Z,101799.13
2022-12-28T02:30:08.706Z,101783.19
2022-12-28T02:33:19.663Z,101777.88
2022-12-28T02:36:26.599Z,101768.19
2022-12-28T02:39:35.435Z,101754.88
2022-12-28T02:42:40.651Z,101754.00
2022-12-28T02:46:03.307Z,101748.69
2022-12-28T02:49:36.499Z,101743.38
2022-12-28T02:53:01.655Z,101744.25
2022-12-28T02:56:15.067Z,101734.47
2022-12-28T02:59:42.232Z,101730.94
2022-12-28T03:02:57.315Z,101717.69
2022-12-28T03:06:40.683Z,101710.56
2022-12-28T03:09:51.545Z,101705.31
2022-12-28T03:13:01.516Z,101695.56
2022-12-28T03:16:12.153Z,101696.44
2022-12-28T03:19:33.950Z,101680.50
2022-12-28T03:22:57.220Z,101668.09
2022-12-28T03:26:20.492Z,101658.34
2022-12-28T03:29:48.826Z,101657.47
2022-12-28T03:32:52.253Z,101659.22
2022-12-28T03:36:04.647Z,101650.38
2022-12-28T03:39:14.367Z,101647.66
2022-12-28T03:42:37.359Z,101644.13
2022-12-28T03:45:47.502Z,101645.00
2022-12-28T03:48:53.549Z,101640.63
2022-12-28T03:51:58.463Z,101637.09
2022-12-28T03:55:01.498Z,101645.94
2022-12-28T03:58:05.271Z,101641.53
2022-12-28T04:01:09.943Z,101645.13
2022-12-28T04:04:15.072Z,101642.41
2022-12-28T04:07:21.148Z,101616.75
2022-12-28T04:10:24.839Z,101606.09
2022-12-28T04:13:30.172Z,101600.78
2022-12-28T04:16:38.755Z,101589.22
2022-12-28T04:19:42.326Z,101578.59
2022-12-28T04:22:46.907Z,101577.69
2022-12-28T04:26:04.133Z,101569.72
2022-12-28T04:29:08.139Z,101559.97
2022-12-28T04:32:17.528Z,101560.84
2022-12-28T04:35:21.518Z,101564.41
2022-12-28T04:38:27.555Z,101556.41
2022-12-28T04:41:30.356Z,101559.09
2022-12-28T04:44:33.480Z,101553.75
2022-12-28T04:47:36.387Z,101546.63
2022-12-28T04:50:39.232Z,101553.75
2022-12-28T04:53:43.899Z,101542.19
2022-12-28T04:56:46.943Z,101543.97
2022-12-28T04:59:49.753Z,101540.41
2022-12-28T05:02:52.729Z,101543.09
2022-12-28T05:05:55.640Z,101551.09
2022-12-28T05:08:59.938Z,101540.47
2022-12-28T05:12:02.791Z,101543.13
2022-12-28T05:15:06.817Z,101528.09
2022-12-28T05:18:09.659Z,101533.47
2022-12-28T05:21:15.158Z,101534.38
2022-12-28T05:24:20.475Z,101529.94
2022-12-28T05:27:23.499Z,101519.31
2022-12-28T05:30:26.543Z,101527.28
2022-12-28T05:33:30.660Z,101522.84
2022-12-28T05:36:36.846Z,101514.88
2022-12-28T05:39:41.003Z,101524.63
2022-12-28T05:42:48.012Z,101514.00
2022-12-28T05:45:54.164Z,101518.44
2022-12-28T05:48:57.029Z,101506.94
2022-12-28T05:51:59.879Z,101498.97
2022-12-28T05:55:04.413Z,101496.31
2022-12-28T05:58:08.497Z,101489.19
2022-12-28T06:01:13.826Z,101482.09
2022-12-28T06:04:18.356Z,101480.38
2022-12-28T06:07:21.290Z,101474.13
2022-12-28T06:10:25.499Z,101464.38
2022-12-28T06:13:28.514Z,101457.28
2022-12-28T06:16:33.153Z,101456.41
2022-12-28T06:19:36.012Z,101456.34
2022-12-28T06:22:38.980Z,101442.19
2022-12-28T06:25:43.182Z,101444.00
2022-12-28T06:28:47.149Z,101443.06
2022-12-28T06:31:51.369Z,101440.41
2022-12-28T06:34:54.345Z,101436.03
2022-12-28T06:37:57.418Z,101432.44
2022-12-28T06:41:13.887Z,101424.47
2022-12-28T06:44:17.555Z,101410.31
2022-12-28T06:47:20.403Z,101399.69
2022-12-28T06:50:23.333Z,101402.31
2022-12-28T06:53:26.962Z,101385.50
2022-12-28T06:56:33.124Z,101389.06
2022-12-28T06:59:35.931Z,101386.41
2022-12-28T07:02:38.875Z,101374.91
2022-12-28T07:05:41.838Z,101363.41
2022-12-28T07:08:45.673Z,101358.09
2022-12-28T07:11:51.299Z,101358.97
2022-12-28T07:14:54.099Z,101352.84
2022-12-28T07:17:57.060Z,101359.00
2022-12-28T07:21:01.512Z,101354.56
2022-12-28T07:24:05.623Z,101359.88
2022-12-28T07:27:09.879Z,101365.19
2022-12-28T07:30:15.183Z,101360.75
2022-12-28T07:33:18.096Z,101343.94
2022-12-28T07:36:22.280Z,101333.31
2022-12-28T07:39:25.205Z,101343.94
2022-12-28T07:42:31.943Z,101333.31
2022-12-28T07:45:36.064Z,101332.44
2022-12-28T07:48:40.580Z,101324.47
2022-12-28T07:51:43.908Z,101325.34
2022-12-28T07:54:46.757Z,101316.50
2022-12-28T07:57:52.415Z,101315.66
2022-12-28T08:00:55.371Z,101319.97
2022-12-28T08:03:59.908Z,101324.44
2022-12-28T08:07:02.848Z,101319.13
2022-12-28T08:10:06.318Z,101313.81
2022-12-28T08:13:10.524Z,101303.19
2022-12-28T08:16:14.592Z,101288.16
2022-12-28T08:19:17.510Z,101287.25
2022-12-28T08:22:20.431Z,101275.81
2022-12-28T08:25:23.291Z,101274.88
2022-12-28T08:28:27.556Z,101269.56
2022-12-28T08:31:32.851Z,101268.69
2022-12-28T08:34:35.754Z,101265.13
2022-12-28T08:37:38.596Z,101266.00
2022-12-28T08:40:41.442Z,101266.81
2022-12-28T08:43:46.388Z,101267.69
2022-12-28T08:46:49.357Z,101257.06
2022-12-28T08:49:52.285Z,101265.03
2022-12-28T08:52:55.143Z,101251.75
2022-12-28T08:56:06.586Z,101254.41
2022-12-28T08:59:14.954Z,101242.00
2022-12-28T09:02:18.147Z,101250.88
2022-12-28T09:05:22.234Z,101252.63
2022-12-28T09:08:25.237Z,101253.50
2022-12-28T09:11:28.417Z,101249.97
2022-12-28T09:14:32.652Z,101250.84
2022-12-28T09:17:35.480Z,101241.13
2022-12-28T09:20:41.937Z,101247.31
2022-12-28T09:23:48.311Z,101234.03
2022-12-28T09:26:52.813Z,101227.91
2022-12-28T09:29:57.395Z,101225.19
2022-12-28T09:33:14.091Z,101219.94
2022-12-28T09:36:19.074Z,101206.66
2022-12-28T09:39:24.915Z,101212.84
2022-12-28T09:42:31.126Z,101198.69
2022-12-28T09:45:35.547Z,101183.66
2022-12-28T09:48:42.040Z,101192.44
2022-12-28T09:51:52.079Z,101182.75
2022-12-28T09:54:55.360Z,101195.09
2022-12-28T09:58:00.355Z,101183.63
2022-12-28T10:01:05.515Z,101178.25
2022-12-28T10:04:08.482Z,101171.19
2022-12-28T10:07:12.902Z,101175.66
2022-12-28T10:10:18.505Z,101165.03
2022-12-28T10:16:50.031Z,101162.38
2022-12-28T10:19:57.933Z,101163.22
2022-12-28T10:23:01.373Z,101157.91
2022-12-28T10:26:07.347Z,101150.81
2022-12-28T10:29:17.855Z,101150.81
2022-12-28T10:32:22.346Z,101150.81
2022-12-28T10:35:27.740Z,101142.84
2022-12-28T10:38:32.902Z,101146.28
2022-12-28T10:41:38.744Z,101146.38
2022-12-28T10:44:41.839Z,101141.94
2022-12-28T10:47:49.929Z,101154.34
2022-12-28T10:50:55.242Z,101145.50
2022-12-28T10:53:59.210Z,101140.19
2022-12-28T10:57:02.056Z,101129.63
2022-12-28T11:00:16.782Z,101127.75
2022-12-28T11:03:26.454Z,101117.19
2022-12-28T11:06:31.814Z,101118.91
2022-12-28T11:09:35.852Z,101111.81
2022-12-28T11:12:43.005Z,101103.84
2022-12-28T11:15:46.079Z,101102.97
2022-12-28T11:18:51.641Z,101104.72
2022-12-28T11:21:54.694Z,101095.88
2022-12-28T11:24:59.819Z,101082.59
2022-12-28T11:28:06.327Z,101087.03
2022-12-28T11:31:14.420Z,101072.88
2022-12-28T11:34:24.287Z,101064.06
2022-12-28T11:37:27.135Z,101069.38
2022-12-28T11:40:50.663Z,101066.72
2022-12-28T11:43:55.504Z,101060.53
2022-12-28T11:47:04.572Z,101055.16
2022-12-28T11:50:47.051Z,101052.50
2022-12-28T11:53:54.293Z,101056.91
2022-12-28T11:57:00.310Z,101044.53
2022-12-28T12:00:40.313Z,101056.91
2022-12-28T12:04:17.630Z,101039.22
2022-12-28T12:07:31.557Z,101044.53
2022-12-28T12:10:38.989Z,101026.88
2022-12-28T12:13:44.603Z,101026.88
2022-12-28T12:16:51.248Z,101028.66
2022-12-28T12:19:59.927Z,101027.72
2022-12-28T12:23:07.452Z,101032.19
2022-12-28T12:26:32.111Z,101025.94
2022-12-28T12:29:40.113Z,101017.09
2022-12-28T12:32:47.311Z,101017.97
2022-12-28T12:35:59.911Z,101024.16
2022-12-28T12:39:32.499Z,101020.63
2022-12-28T12:42:45.327Z,101010.00
2022-12-28T12:45:57.256Z,101023.28
2022-12-28T12:49:28.495Z,101017.97
2022-12-28T12:52:42.428Z,101015.31
2022-12-28T12:55:55.896Z,101007.34
2022-12-28T12:59:16.583Z,101017.97
2022-12-28T13:02:45.197Z,101008.22
2022-12-28T13:05:53.310Z,101017.06
2022-12-28T13:09:05.010Z,101017.88
2022-12-28T13:12:15.708Z,101021.41
2022-12-28T13:15:20.111Z,101017.06
2022-12-28T13:21:49.024Z,101003.78
2022-12-28T13:24:52.005Z,101006.44
2022-12-28T13:27:55.487Z,100995.84
2022-12-28T13:31:06.927Z,101001.13
2022-12-28T13:34:19.456Z,101002.91
2022-12-28T13:37:23.311Z,100995.78
2022-12-28T13:40:26.839Z,100994.06
2022-12-28T13:43:51.480Z,100988.75
2022-12-28T13:47:02.847Z,100982.50
2022-12-28T13:50:10.333Z,100985.16
2022-12-28T13:53:15.708Z,100987.81
2022-12-28T13:56:22.445Z,100998.44
2022-12-28T13:59:26.091Z,101002.81
2022-12-28T14:02:30.393Z,100995.78
2022-12-28T14:05:33.374Z,100993.13
2022-12-28T14:08:40.511Z,100988.75
2022-12-28T14:11:45.354Z,100995.00
2022-12-28T14:14:49.088Z,100998.44
2022-12-28T14:17:53.930Z,101003.78
2022-12-28T14:20:58.612Z,100997.56
2022-12-28T14:24:07.645Z,100995.78
2022-12-28T14:27:10.575Z,101000.16
2022-12-28T14:30:25.196Z,101003.69
2022-12-28T14:33:32.463Z,101000.16
2022-12-28T14:36:42.259Z,100999.28
2022-12-28T14:39:46.652Z,100996.72
2022-12-28T14:42:52.550Z,100993.13
2022-12-28T14:46:07.316Z,100987.81
2022-12-28T14:49:44.961Z,100990.47
2022-12-28T14:52:50.629Z,100994.84
2022-12-28T14:56:13.573Z,100995.78
2022-12-28T14:59:22.387Z,100990.41
2022-12-28T15:02:46.570Z,100994.84
2022-12-28T15:05:50.964Z,100993.97
2022-12-28T15:08:58.342Z,100989.53
2022-12-28T15:12:13.350Z,100996.63
2022-12-28T15:15:16.708Z,100993.13
2022-12-28T15:18:20.394Z,100993.97
2022-12-28T15:21:24.488Z,100998.44
2022-12-28T15:24:33.820Z,100995.78
2022-12-28T15:27:37.174Z,101003.78
2022-12-28T15:30:43.429Z,101005.56
2022-12-28T15:33:47.005Z,101003.78
2022-12-28T15:36:50.848Z,100999.28
2022-12-28T15:39:55.038Z,101000.16
2022-12-28T15:42:57.898Z,101003.69
2022-12-28T15:46:00.940Z,101001.91
2022-12-28T15:49:04.864Z,101001.91
2022-12-28T15:52:08.573Z,101005.47
2022-12-28T15:55:12.805Z,100998.44
2022-12-28T15:58:15.589Z,101004.59
2022-12-28T16:01:18.539Z,101004.69
2022-12-28T16:04:21.625Z,101016.19
2022-12-28T16:07:24.436Z,101009.09
2022-12-28T16:10:28.663Z,100998.44
2022-12-28T16:13:31.493Z,100999.28
2022-12-28T16:16:37.086Z,100999.25
2022-12-28T16:19:40.028Z,101000.16
2022-12-28T16:22:43.290Z,100994.81
2022-12-28T16:25:51.982Z,100992.16
2022-12-28T16:28:54.820Z,100985.09
2022-12-28T16:32:00.402Z,100993.13
2022-12-28T16:35:03.256Z,100987.81
2022-12-28T16:38:06.195Z,100993.13
2022-12-28T16:41:10.405Z,100986.09
2022-12-28T16:44:15.493Z,100982.50
2022-12-28T16:47:18.343Z,100986.94
2022-12-28T16:50:21.234Z,100985.16
2022-12-28T16:53:24.879Z,100992.19
2022-12-28T16:56:29.271Z,100984.22
2022-12-28T16:59:32.235Z,100990.41
2022-12-28T17:02:35.212Z,100977.19
2022-12-28T17:05:39.276Z,100973.59
2022-12-28T17:08:42.102Z,100981.56
2022-12-28T17:11:49.085Z,100978.91
2022-12-28T17:14:51.922Z,100976.31
2022-12-28T17:17:54.734Z,100971.00
2022-12-28T17:21:01.905Z,100976.31
2022-12-28T17:24:09.577Z,100975.47
2022-12-28T17:27:18.843Z,100964.81
2022-12-28T17:30:22.313Z,100968.28
2022-12-28T17:33:26.377Z,100962.97
2022-12-28T17:36:29.261Z,100956.75
2022-12-28T17:39:37.530Z,100954.09
2022-12-28T17:42:43.803Z,100959.41
2022-12-28T17:45:47.854Z,100958.53
2022-12-28T17:48:52.889Z,100964.72
2022-12-28T17:51:55.728Z,100958.59
2022-12-28T17:54:58.594Z,100958.59
2022-12-28T17:58:02.954Z,100952.34
2022-12-28T18:01:06.625Z,100950.63
2022-12-28T18:04:10.239Z,100952.34
2022-12-28T18:07:13.096Z,100947.97
2022-12-28T18:10:16.266Z,100953.22
2022-12-28T18:13:20.557Z,100951.47
2022-12-28T18:16:23.479Z,100953.22
2022-12-28T18:19:26.383Z,100949.69
2022-12-28T18:22:29.679Z,100952.34
2022-12-28T18:25:33.073Z,100955.88
2022-12-28T18:28:37.692Z,100941.72
2022-12-28T18:31:40.643Z,100945.31
2022-12-28T18:34:43.556Z,100940.91
2022-12-28T18:37:47.303Z,100940.91
2022-12-28T18:40:51.807Z,100940.00
2022-12-28T18:43:57.049Z,100941.72
2022-12-28T18:47:00.127Z,100933.75
2022-12-28T18:50:03.256Z,100939.94
2022-12-28T18:53:06.145Z,100931.97
2022-12-28T18:56:11.264Z,100930.22
2022-12-28T18:59:15.450Z,100932.84
2022-12-28T19:02:19.874Z,100917.81
2022-12-28T19:05:22.882Z,100920.47
2022-12-28T19:08:25.788Z,100924.91
2022-12-28T19:11:28.849Z,100915.16
2022-12-28T19:14:33.063Z,100924.06
2022-12-28T19:17:35.907Z,100919.59
2022-12-28T19:20:38.743Z,100910.78
2022-12-28T19:23:41.746Z,100909.84
2022-12-28T19:26:45.457Z,100921.34
2022-12-28T19:29:50.587Z,100914.25
2022-12-28T19:32:55.028Z,100913.28
2022-12-28T19:35:57.853Z,100906.28
2022-12-28T19:39:00.744Z,100904.53
2022-12-28T19:42:03.771Z,100905.47
2022-12-28T19:45:10.259Z,100903.66
2022-12-28T19:48:13.307Z,100901.88
2022-12-28T19:51:16.783Z,100897.50
2022-12-28T19:54:19.747Z,100902.81
2022-12-28T19:57:22.591Z,100902.81
2022-12-28T20:00:26.851Z,100903.63
2022-12-28T20:03:29.709Z,100902.75
2022-12-28T20:06:32.595Z,100904.47
2022-12-28T20:09:35.438Z,100908.94
2022-12-28T20:12:38.488Z,100905.31
2022-12-28T20:15:44.090Z,100890.31
2022-12-28T20:18:47.301Z,100890.31
2022-12-28T20:21:50.582Z,100882.34
2022-12-28T20:24:53.429Z,100877.03
2022-12-28T20:27:56.263Z,100859.34
2022-12-28T20:31:02.530Z,100847.81
2022-12-28T20:34:05.815Z,100844.28
2022-12-28T20:37:08.894Z,100830.13
2022-12-28T20:40:12.611Z,100813.28
2022-12-28T20:43:23.375Z,100804.44
2022-12-28T20:46:27.604Z,100805.31
2022-12-28T20:49:31.589Z,100803.56
2022-12-28T20:52:34.472Z,100820.38
2022-12-28T20:55:37.296Z,100862.00
2022-12-28T20:58:40.593Z,100856.69
2022-12-28T21:01:44.850Z,100839.88
2022-12-28T21:04:47.729Z,100852.34
2022-12-28T21:07:50.646Z,100839.88
2022-12-28T21:10:53.469Z,100842.63
2022-12-28T21:13:56.313Z,100824.03
2022-12-28T21:17:00.520Z,100803.56
2022-12-28T21:20:03.964Z,100792.94
2022-12-28T21:23:06.875Z,100788.50
2022-12-28T21:26:13.107Z,100786.72
2022-12-28T21:29:19.144Z,100772.56
2022-12-28T21:32:28.106Z,100763.72
2022-12-28T21:35:34.417Z,100751.38
2022-12-28T21:38:39.355Z,100744.25
2022-12-28T21:41:51.271Z,100738.09
2022-12-28T21:44:54.179Z,100746.06
2022-12-28T21:47:59.041Z,100735.44
2022-12-28T21:51:07.100Z,100735.44
2022-12-28T21:54:14.330Z,100734.50
2022-12-28T21:57:17.194Z,100723.88
2022-12-28T22:00:38.408Z,100717.63
2022-12-28T22:04:00.204Z,100714.97
2022-12-28T22:07:04.081Z,100709.66
2022-12-28T22:10:24.955Z,100696.38
2022-12-28T22:13:27.748Z,100699.03
2022-12-28T22:16:32.870Z,100686.69
2022-12-28T22:19:37.098Z,100676.06
2022-12-28T22:22:42.459Z,100670.75
2022-12-28T22:25:45.588Z,100668.16
2022-12-28T22:28:48.537Z,100665.41
2022-12-28T22:31:51.433Z,100662.75
2022-12-28T22:34:55.823Z,100651.28
2022-12-28T22:37:59.015Z,100655.59
2022-12-28T22:41:01.945Z,100645.91
2022-12-28T22:44:04.859Z,100652.09
2022-12-28T22:47:07.866Z,100637.94
2022-12-28T22:50:14.746Z,100637.94
2022-12-28T22:53:17.679Z,100639.72
2022-12-28T22:56:21.019Z,100644.16
2022-12-28T22:59:23.990Z,100618.47
2022-12-28T23:02:26.999Z,100627.38
2022-12-28T23:05:31.937Z,100626.44
2022-12-28T23:08:34.937Z,100628.22
2022-12-28T23:11:37.839Z,100623.78
2022-12-28T23:14:58.042Z,100617.59
2022-12-28T23:18:21.152Z,100601.66
2022-12-28T23:21:42.785Z,100602.53
2022-12-28T23:25:03.043Z,100614.03
2022-12-28T23:28:08.612Z,100607.84
2022-12-28T23:31:11.549Z,100606.09
2022-12-28T23:34:14.445Z,100595.56
2022-12-28T23:37:18.632Z,100584.94
2022-12-28T23:40:25.139Z,100582.28
2022-12-28T23:43:27.951Z,100572.53
2022-12-28T23:46:30.799Z,100576.97
2022-12-28T23:49:33.814Z,100562.78
2022-12-28T23:52:38.102Z,100564.47
2022-12-28T23:55:40.923Z,100560.94
2022-12-28T23:58:43.830Z,100557.47
